createdAt,value
2024-04-12T00:02:05.919Z,85.52
2024-04-12T00:04:36.456Z,86.12
2024-04-12T00:07:14.961Z,87.24
2024-04-12T00:09:44.581Z,86.84
2024-04-12T00:12:13.344Z,88.93
2024-04-12T00:14:45.223Z,88.54
2024-04-12T00:17:17.138Z,89.18
2024-04-12T00:19:47.041Z,89.53
2024-04-12T00:22:15.594Z,89.02
2024-04-12T00:24:43.907Z,88.51
2024-04-12T00:27:16.447Z,88.72
2024-04-12T00:29:47.307Z,88.19
2024-04-12T00:32:17.510Z,88.02
2024-04-12T00:34:52.732Z,87.81
2024-04-12T00:37:22.191Z,87.85
2024-04-12T00:39:51.769Z,87.84
2024-04-12T00:42:27.920Z,87.85
2024-04-12T00:44:59.197Z,88.03
2024-04-12T00:47:33.544Z,87.95
2024-04-12T00:50:05.522Z,87.80
2024-04-12T00:52:36.839Z,87.88
2024-04-12T00:55:10.610Z,87.97
2024-04-12T00:57:42.436Z,87.49
2024-04-12T01:00:20.685Z,87.56
2024-04-12T01:02:50.613Z,87.91
2024-04-12T01:05:20.705Z,88.37
2024-04-12T01:07:56.833Z,87.89
2024-04-12T01:10:27.334Z,88.44
2024-04-12T01:12:59.278Z,88.25
2024-04-12T01:15:39.019Z,88.11
2024-04-12T01:18:16.550Z,88.13
2024-04-12T01:20:46.707Z,88.75
2024-04-12T01:23:18.543Z,88.72
2024-04-12T01:25:47.056Z,88.84
2024-04-12T01:28:17.188Z,89.14
2024-04-12T01:30:47.503Z,88.89
2024-04-12T01:33:16.116Z,88.53
2024-04-12T01:35:45.944Z,88.50
2024-04-12T01:38:21.302Z,88.89
2024-04-12T01:41:00.349Z,88.48
2024-04-12T01:43:32.307Z,88.93
2024-04-12T01:46:00.269Z,88.98
2024-04-12T01:48:30.373Z,89.27
2024-04-12T01:50:58.627Z,89.30
2024-04-12T01:53:28.215Z,90.08
2024-04-12T01:55:56.244Z,89.52
2024-04-12T01:58:24.720Z,89.97
2024-04-12T02:00:53.232Z,90.31
2024-04-12T02:03:22.747Z,90.12
2024-04-12T02:05:51.330Z,89.73
2024-04-12T02:08:20.077Z,90.40
2024-04-12T02:10:50.061Z,90.76
2024-04-12T02:13:20.261Z,90.90
2024-04-12T02:15:50.639Z,91.39
2024-04-12T02:18:23.297Z,91.87
2024-04-12T02:20:54.292Z,92.35
2024-04-12T02:23:24.295Z,92.36
2024-04-12T02:25:52.475Z,93.36
2024-04-12T02:28:20.689Z,93.43
2024-04-12T02:30:58.216Z,92.56
2024-04-12T02:33:34.080Z,92.75
2024-04-12T02:36:17.896Z,92.61
2024-04-12T02:38:53.042Z,93.32
2024-04-12T02:41:21.419Z,93.24
2024-04-12T02:43:53.231Z,93.36
2024-04-12T02:46:23.338Z,93.07
2024-04-12T02:48:52.226Z,92.93
2024-04-12T02:51:23.040Z,92.72
2024-04-12T02:53:52.431Z,92.36
2024-04-12T02:56:25.156Z,92.07
2024-04-12T02:58:55.167Z,92.56
2024-04-12T03:01:25.343Z,91.98
2024-04-12T03:03:57.603Z,92.28
2024-04-12T03:06:29.088Z,92.09
2024-04-12T03:09:07.051Z,92.34
2024-04-12T03:11:36.195Z,92.23
2024-04-12T03:14:10.243Z,92.86
2024-04-12T03:16:43.633Z,93.31
2024-04-12T03:19:15.260Z,93.33
2024-04-12T03:21:43.474Z,93.93
2024-04-12T03:24:12.453Z,95.07
2024-04-12T03:26:44.334Z,95.01
2024-04-12T03:29:13.506Z,95.66
2024-04-12T03:31:41.728Z,95.83
2024-04-12T03:34:10.173Z,96.04
2024-04-12T03:36:40.139Z,96.33
2024-04-12T03:39:19.566Z,95.72
2024-04-12T03:42:07.591Z,95.61
2024-04-12T03:44:38.113Z,95.62
2024-04-12T03:47:12.912Z,95.44
2024-04-12T03:49:44.433Z,95.15
2024-04-12T03:52:15.453Z,95.22
2024-04-12T03:54:47.346Z,94.91
2024-04-12T03:57:17.141Z,95.27
2024-04-12T03:59:46.630Z,94.34
2024-04-12T04:02:17.323Z,93.84
2024-04-12T04:04:47.538Z,94.94
2024-04-12T04:07:18.721Z,94.38
2024-04-12T04:09:48.632Z,94.18
2024-04-12T04:12:17.917Z,94.15
2024-04-12T04:14:51.604Z,93.98
2024-04-12T04:17:30.330Z,95.00
2024-04-12T04:19:59.112Z,95.02
2024-04-12T04:22:30.250Z,95.31
2024-04-12T04:24:58.217Z,95.31
2024-04-12T04:27:26.312Z,95.64
2024-04-12T04:29:57.906Z,95.33
2024-04-12T04:32:28.043Z,95.07
2024-04-12T04:35:10.669Z,94.72
2024-04-12T04:37:40.492Z,94.35
2024-04-12T04:40:13.220Z,93.98
2024-04-12T04:42:44.305Z,93.59
2024-04-12T04:45:19.023Z,92.86
2024-04-12T04:47:47.529Z,92.55
2024-04-12T04:50:21.010Z,92.19
2024-04-12T04:52:51.419Z,91.64
2024-04-12T04:55:20.453Z,90.78
2024-04-12T04:57:55.948Z,90.26
2024-04-12T05:00:25.908Z,90.05
2024-04-12T05:02:55.604Z,90.13
2024-04-12T05:05:27.105Z,89.72
2024-04-12T05:07:57.361Z,89.20
2024-04-12T05:10:26.892Z,88.31
2024-04-12T05:12:55.909Z,88.45
2024-04-12T05:15:42.714Z,87.58
2024-04-12T05:18:14.707Z,87.06
2024-04-12T05:20:44.585Z,86.75
2024-04-12T05:23:14.457Z,86.12
2024-04-12T05:25:52.932Z,86.11
2024-04-12T05:28:21.576Z,84.93
2024-04-12T05:30:51.306Z,84.49
2024-04-12T05:33:21.039Z,83.82
2024-04-12T05:35:50.217Z,83.05
2024-04-12T05:38:22.947Z,82.57
2024-04-12T05:40:55.504Z,82.37
2024-04-12T05:43:24.122Z,81.89
2024-04-12T05:45:54.574Z,81.21
2024-04-12T05:48:24.373Z,80.04
2024-04-12T05:50:55.733Z,79.55
2024-04-12T05:53:26.110Z,79.12
2024-04-12T05:56:13.982Z,78.48
2024-04-12T05:58:42.530Z,78.47
2024-04-12T06:01:12.221Z,77.47
2024-04-12T06:03:56.188Z,76.19
2024-04-12T06:06:26.049Z,75.29
2024-04-12T06:08:55.132Z,75.26
2024-04-12T06:11:26.309Z,74.38
2024-04-12T06:13:56.371Z,73.31
2024-04-12T06:16:25.620Z,72.51
2024-04-12T06:18:54.312Z,71.82
2024-04-12T06:21:23.587Z,72.40
2024-04-12T06:23:56.315Z,71.12
2024-04-12T06:26:24.748Z,71.26
2024-04-12T06:28:58.212Z,70.71
2024-04-12T06:31:35.477Z,70.70
2024-04-12T06:34:13.565Z,70.13
2024-04-12T06:36:46.672Z,69.07
2024-04-12T06:39:16.828Z,67.78
2024-04-12T06:41:46.786Z,67.46
2024-04-12T06:44:20.837Z,66.74
2024-04-12T06:46:53.175Z,65.92
2024-04-12T06:49:28.309Z,65.78
2024-04-12T06:52:21.465Z,65.04
2024-04-12T06:54:49.767Z,64.43
2024-04-12T06:57:20.049Z,63.13
2024-04-12T06:59:49.221Z,62.93
2024-04-12T07:02:24.834Z,61.86
2024-04-12T07:04:57.937Z,61.60
2024-04-12T07:07:29.229Z,60.35
2024-04-12T07:10:00.964Z,60.95
2024-04-12T07:12:32.123Z,60.54
2024-04-12T07:15:01.632Z,59.38
2024-04-12T07:17:30.016Z,59.66
2024-04-12T07:20:01.576Z,58.60
2024-04-12T07:22:30.356Z,57.30
2024-04-12T07:25:00.645Z,55.91
2024-04-12T07:27:29.609Z,56.21
2024-04-12T07:29:59.255Z,55.61
2024-04-12T07:32:37.070Z,56.00
2024-04-12T07:35:23.766Z,54.89
2024-04-12T07:37:58.486Z,52.74
2024-04-12T07:40:33.328Z,52.33
2024-04-12T07:43:09.558Z,52.23
2024-04-12T07:45:40.283Z,51.98
2024-04-12T07:48:22.152Z,51.17
2024-04-12T07:51:00.997Z,49.92
2024-04-12T07:53:35.643Z,50.28
2024-04-12T07:56:11.010Z,48.87
2024-04-12T07:58:41.896Z,48.13
2024-04-12T08:01:18.010Z,48.10
2024-04-12T08:04:06.577Z,47.82
2024-04-12T08:06:39.098Z,47.34
2024-04-12T08:09:22.201Z,46.77
2024-04-12T08:11:53.220Z,45.19
2024-04-12T08:14:23.167Z,44.63
2024-04-12T08:16:55.104Z,44.03
2024-04-12T08:19:23.924Z,44.07
2024-04-12T08:21:56.355Z,43.76
2024-04-12T08:24:24.862Z,43.20
2024-04-12T08:26:54.214Z,43.83
2024-04-12T08:29:27.811Z,42.30
2024-04-12T08:32:12.447Z,43.12
2024-04-12T08:34:44.037Z,42.66
2024-04-12T08:37:17.727Z,41.67
2024-04-12T08:39:54.718Z,42.62
2024-04-12T08:42:30.419Z,41.90
2024-04-12T08:45:00.577Z,41.11
2024-04-12T08:47:32.287Z,42.16
2024-04-12T08:50:05.034Z,41.51
2024-04-12T08:52:49.969Z,41.22
2024-04-12T08:55:22.036Z,41.25
2024-04-12T08:57:57.790Z,41.01
2024-04-12T09:00:35.601Z,40.42
2024-04-12T09:03:12.740Z,39.89
2024-04-12T09:05:43.916Z,39.83
2024-04-12T09:08:18.594Z,39.38
2024-04-12T09:10:47.350Z,38.43
2024-04-12T09:13:16.694Z,38.66
2024-04-12T09:15:47.382Z,38.94
2024-04-12T09:18:17.335Z,38.37
2024-04-12T09:20:53.480Z,37.65
2024-04-12T09:23:34.685Z,38.27
2024-04-12T09:26:27.215Z,38.01
2024-04-12T09:29:10.830Z,37.93
2024-04-12T09:31:59.182Z,37.74
2024-04-12T09:34:36.733Z,37.54
2024-04-12T09:37:27.553Z,36.39
2024-04-12T09:40:01.044Z,36.71
2024-04-12T09:42:47.535Z,35.91
2024-04-12T09:45:20.877Z,36.20
2024-04-12T09:48:09.156Z,36.60
2024-04-12T09:50:56.337Z,35.88
2024-04-12T09:53:43.629Z,36.15
2024-04-12T09:56:34.417Z,36.72
2024-04-12T09:59:29.765Z,36.59
2024-04-12T10:02:16.388Z,35.78
2024-04-12T10:05:08.548Z,35.58
2024-04-12T10:07:57.977Z,35.34
2024-04-12T10:10:48.939Z,35.63
2024-04-12T10:13:36.434Z,35.58
2024-04-12T10:16:23.443Z,35.13
2024-04-12T10:19:19.315Z,35.38
2024-04-12T10:22:06.089Z,35.53
2024-04-12T10:24:52.942Z,35.01
2024-04-12T10:27:39.659Z,34.80
2024-04-12T10:30:29.635Z,35.41
2024-04-12T10:33:20.720Z,35.27
2024-04-12T10:36:08.852Z,34.67
2024-04-12T10:38:46.361Z,34.29
2024-04-12T10:41:16.748Z,34.83
2024-04-12T10:43:44.684Z,33.77
2024-04-12T10:46:13.427Z,32.59
2024-04-12T10:48:45.190Z,32.05
2024-04-12T10:51:16.286Z,32.44
2024-04-12T10:53:44.816Z,32.39
2024-04-12T10:56:19.912Z,32.27
2024-04-12T10:58:53.543Z,32.47
2024-04-12T11:01:24.175Z,32.51
2024-04-12T11:04:00.405Z,32.37
2024-04-12T11:06:33.757Z,32.59
2024-04-12T11:09:06.488Z,32.29
2024-04-12T11:11:39.985Z,32.94
2024-04-12T11:14:16.978Z,32.59
2024-04-12T11:17:07.955Z,32.51
2024-04-12T11:19:56.902Z,32.53
2024-04-12T11:22:47.604Z,32.43
2024-04-12T11:25:34.280Z,31.64
2024-04-12T11:28:24.763Z,31.51
2024-04-12T11:31:16.273Z,30.64
2024-04-12T11:34:01.060Z,29.72
2024-04-12T11:36:40.837Z,29.46
2024-04-12T11:39:20.033Z,29.72
2024-04-12T11:41:49.077Z,28.65
2024-04-12T11:44:19.831Z,29.24
2024-04-12T11:46:49.938Z,28.65
2024-04-12T11:49:28.356Z,28.54
2024-04-12T11:51:58.365Z,28.38
2024-04-12T11:54:31.109Z,28.03
2024-04-12T11:57:06.727Z,27.82
2024-04-12T11:59:35.831Z,27.58
2024-04-12T12:02:06.237Z,27.27
2024-04-12T12:04:34.903Z,27.13
2024-04-12T12:07:06.957Z,26.97
2024-04-12T12:09:39.261Z,27.12
2024-04-12T12:12:12.733Z,26.55
2024-04-12T12:14:45.249Z,26.68
2024-04-12T12:17:19.654Z,26.78
2024-04-12T12:19:53.068Z,27.15
2024-04-12T12:22:22.846Z,26.62
2024-04-12T12:24:52.271Z,26.82
2024-04-12T12:27:21.509Z,26.22
2024-04-12T12:29:52.545Z,26.42
2024-04-12T12:32:27.105Z,26.28
2024-04-12T12:34:55.951Z,25.95
2024-04-12T12:37:25.608Z,25.77
2024-04-12T12:39:53.661Z,25.81
2024-04-12T12:42:22.742Z,25.24
2024-04-12T12:44:50.831Z,24.69
2024-04-12T12:47:21.830Z,24.64
2024-04-12T12:49:54.292Z,24.77
2024-04-12T12:52:23.560Z,24.59
2024-04-12T12:54:51.672Z,25.05
2024-04-12T12:57:19.859Z,24.88
2024-04-12T12:59:47.901Z,24.41
2024-04-12T13:02:16.936Z,25.01
2024-04-12T13:04:47.967Z,24.73
2024-04-12T13:07:18.629Z,24.73
2024-04-12T13:09:54.721Z,24.77
2024-04-12T13:12:29.551Z,24.60
2024-04-12T13:14:59.242Z,24.41
2024-04-12T13:17:27.708Z,24.83
2024-04-12T13:19:58.013Z,24.77
2024-04-12T13:22:25.892Z,24.99
2024-04-12T13:24:54.303Z,24.78
2024-04-12T13:27:24.823Z,24.63
2024-04-12T13:29:53.255Z,24.91
2024-04-12T13:32:21.361Z,24.45
2024-04-12T13:34:49.526Z,24.40
2024-04-12T13:37:21.846Z,24.61
2024-04-12T13:39:50.199Z,24.43
2024-04-12T13:42:21.641Z,24.30
2024-04-12T13:45:08.686Z,23.94
2024-04-12T13:47:55.858Z,23.95
2024-04-12T13:50:42.660Z,23.71
2024-04-12T13:53:10.653Z,23.52
2024-04-12T13:55:40.295Z,23.30
2024-04-12T13:58:08.495Z,23.33
2024-04-12T14:00:37.791Z,23.51
2024-04-12T14:03:16.302Z,22.84
2024-04-12T14:05:47.362Z,22.37
2024-04-12T14:08:21.929Z,22.52
2024-04-12T14:10:49.954Z,22.64
2024-04-12T14:13:18.261Z,22.35
2024-04-12T14:15:50.336Z,22.11
2024-04-12T14:18:18.654Z,22.13
2024-04-12T14:20:46.658Z,21.84
2024-04-12T14:23:14.565Z,21.66
2024-04-12T14:25:42.473Z,22.04
2024-04-12T14:28:11.905Z,22.30
2024-04-12T14:30:39.933Z,21.77
2024-04-12T14:33:08.668Z,21.97
2024-04-12T14:35:42.700Z,22.75
2024-04-12T14:38:10.901Z,23.33
2024-04-12T14:40:38.812Z,23.15
2024-04-12T14:43:06.866Z,23.10
2024-04-12T14:45:36.260Z,22.44
2024-04-12T14:48:09.595Z,22.88
2024-04-12T14:50:43.426Z,22.90
2024-04-12T14:53:11.525Z,22.81
2024-04-12T14:55:39.998Z,22.90
2024-04-12T14:58:08.677Z,23.11
2024-04-12T15:00:36.811Z,23.71
2024-04-12T15:03:24.072Z,23.86
2024-04-12T15:06:11.977Z,23.87
2024-04-12T15:08:59.731Z,24.09
2024-04-12T15:11:46.589Z,24.44
2024-04-12T15:14:37.487Z,24.93
2024-04-12T15:17:26.255Z,25.55
2024-04-12T15:20:13.044Z,25.59
2024-04-12T15:22:59.886Z,26.13
2024-04-12T15:25:46.658Z,26.36
2024-04-12T15:28:33.390Z,26.26
2024-04-12T15:31:20.235Z,26.52
2024-04-12T15:34:07.224Z,26.47
2024-04-12T15:36:53.845Z,26.49
2024-04-12T15:39:40.526Z,26.23
2024-04-12T15:42:27.267Z,26.73
2024-04-12T15:45:14.036Z,27.20
2024-04-12T15:47:42.093Z,27.45
2024-04-12T15:50:13.472Z,27.74
2024-04-12T15:52:43.476Z,28.09
2024-04-12T15:55:21.808Z,28.70
2024-04-12T15:58:08.446Z,29.54
2024-04-12T16:00:55.300Z,29.88
2024-04-12T16:03:42.166Z,30.41
2024-04-12T16:06:29.034Z,30.73
2024-04-12T16:09:15.858Z,31.56
2024-04-12T16:11:44.058Z,31.57
2024-04-12T16:14:12.050Z,31.86
2024-04-12T16:16:40.113Z,32.61
2024-04-12T16:19:07.994Z,33.16
2024-04-12T16:21:36.171Z,33.16
2024-04-12T16:24:04.409Z,33.78
2024-04-12T16:26:32.520Z,34.24
2024-04-12T16:29:00.366Z,34.47
2024-04-12T16:31:28.489Z,35.30
2024-04-12T16:33:57.363Z,35.59
2024-04-12T16:36:26.339Z,35.70
2024-04-12T16:38:54.702Z,35.74
2024-04-12T16:41:23.872Z,35.96
2024-04-12T16:43:51.861Z,36.07
2024-04-12T16:46:20.095Z,36.42
2024-04-12T16:48:48.050Z,36.71
2024-04-12T16:51:19.654Z,37.17
2024-04-12T16:53:47.623Z,37.13
2024-04-12T16:56:15.738Z,37.20
2024-04-12T16:58:43.572Z,37.17
2024-04-12T17:01:11.820Z,37.44
2024-04-12T17:03:40.282Z,37.67
2024-04-12T17:06:08.457Z,38.08
2024-04-12T17:08:36.421Z,37.98
2024-04-12T17:11:04.719Z,37.88
2024-04-12T17:13:33.931Z,38.07
2024-04-12T17:16:04.949Z,38.28
2024-04-12T17:18:34.489Z,38.21
2024-04-12T17:21:05.693Z,38.17
2024-04-12T17:23:33.991Z,38.54
2024-04-12T17:26:05.050Z,38.39
2024-04-12T17:28:33.062Z,38.39
2024-04-12T17:31:01.799Z,38.94
2024-04-12T17:33:31.212Z,39.19
2024-04-12T17:35:59.377Z,39.58
2024-04-12T17:38:27.366Z,39.75
2024-04-12T17:40:55.394Z,40.17
2024-04-12T17:43:23.343Z,40.31
2024-04-12T17:45:51.250Z,40.39
2024-04-12T17:48:19.649Z,40.43
2024-04-12T17:50:59.699Z,40.63
2024-04-12T17:53:36.256Z,40.72
2024-04-12T17:56:07.689Z,40.73
2024-04-12T17:58:36.615Z,40.76
2024-04-12T18:01:06.467Z,40.80
2024-04-12T18:03:34.672Z,40.85
2024-04-12T18:06:02.975Z,40.94
2024-04-12T18:08:31.036Z,41.37
2024-04-12T18:11:04.208Z,41.27
2024-04-12T18:13:32.658Z,41.65
2024-04-12T18:16:02.701Z,41.88
2024-04-12T18:18:30.687Z,41.83
2024-04-12T18:21:05.144Z,41.86
2024-04-12T18:23:33.114Z,42.76
2024-04-12T18:26:01.339Z,43.12
2024-04-12T18:28:29.634Z,43.60
2024-04-12T18:30:57.745Z,43.95
2024-04-12T18:33:26.206Z,44.27
2024-04-12T18:35:55.361Z,44.77
2024-04-12T18:38:42.022Z,45.16
2024-04-12T18:41:28.772Z,45.47
2024-04-12T18:44:15.594Z,45.26
2024-04-12T18:46:43.464Z,46.23
2024-04-12T18:49:11.599Z,46.68
2024-04-12T18:51:39.607Z,46.98
2024-04-12T18:54:07.543Z,47.42
2024-04-12T18:56:37.347Z,46.85
2024-04-12T18:59:06.501Z,47.43
2024-04-12T19:01:35.190Z,48.04
2024-04-12T19:04:03.492Z,48.31
2024-04-12T19:06:33.106Z,48.63
2024-04-12T19:09:01.205Z,48.55
2024-04-12T19:11:30.610Z,48.10
2024-04-12T19:14:00.395Z,48.87
2024-04-12T19:16:28.320Z,49.05
2024-04-12T19:18:56.463Z,49.52
2024-04-12T19:21:26.175Z,49.65
2024-04-12T19:23:55.648Z,50.20
2024-04-12T19:26:23.664Z,50.73
2024-04-12T19:28:52.143Z,51.13
2024-04-12T19:31:20.042Z,51.55
2024-04-12T19:33:49.562Z,51.63
2024-04-12T19:36:17.780Z,51.90
2024-04-12T19:38:45.688Z,51.89
2024-04-12T19:41:15.840Z,52.53
2024-04-12T19:43:46.680Z,52.95
2024-04-12T19:46:16.163Z,53.13
2024-04-12T19:48:44.577Z,53.28
2024-04-12T19:51:12.889Z,52.77
2024-04-12T19:53:40.967Z,52.76
2024-04-12T19:56:09.267Z,52.78
2024-04-12T19:58:38.561Z,52.45
2024-04-12T20:01:11.059Z,53.14
2024-04-12T20:03:39.664Z,52.74
2024-04-12T20:06:07.992Z,52.49
2024-04-12T20:08:36.553Z,52.60
2024-04-12T20:11:06.346Z,52.64
2024-04-12T20:13:35.977Z,53.10
2024-04-12T20:16:07.115Z,52.99
2024-04-12T20:18:37.432Z,54.72
2024-04-12T20:21:07.591Z,53.50
2024-04-12T20:23:36.281Z,53.76
2024-04-12T20:26:14.118Z,53.95
2024-04-12T20:28:47.810Z,54.57
2024-04-12T20:31:23.580Z,55.63
2024-04-12T20:34:04.690Z,55.01
2024-04-12T20:36:46.571Z,56.98
2024-04-12T20:39:19.072Z,56.53
2024-04-12T20:41:49.649Z,56.42
2024-04-12T20:44:19.681Z,56.78
2024-04-12T20:46:49.385Z,57.41
2024-04-12T20:49:18.362Z,57.89
2024-04-12T20:51:48.500Z,58.36
2024-04-12T20:54:17.086Z,59.69
2024-04-12T20:56:46.019Z,60.43
2024-04-12T20:59:14.259Z,59.44
2024-04-12T21:01:45.957Z,59.95
2024-04-12T21:04:15.608Z,59.39
2024-04-12T21:06:44.789Z,59.76
2024-04-12T21:09:17.161Z,59.48
2024-04-12T21:11:46.067Z,59.37
2024-04-12T21:14:14.816Z,58.66
2024-04-12T21:16:44.391Z,59.27
2024-04-12T21:19:13.741Z,59.74
2024-04-12T21:21:41.680Z,58.84
2024-04-12T21:24:11.060Z,59.81
2024-04-12T21:26:39.204Z,60.33
2024-04-12T21:29:07.204Z,59.79
2024-04-12T21:31:35.114Z,59.86
2024-04-12T21:34:03.074Z,58.97
2024-04-12T21:36:30.979Z,58.31
2024-04-12T21:38:59.768Z,58.06
2024-04-12T21:41:27.985Z,58.12
2024-04-12T21:43:56.012Z,58.22
2024-04-12T21:46:25.478Z,58.29
2024-04-12T21:48:54.649Z,59.11
2024-04-12T21:51:31.908Z,58.98
2024-04-12T21:54:01.390Z,59.36
2024-04-12T21:56:29.509Z,59.61
2024-04-12T21:58:59.823Z,59.49
2024-04-12T22:01:28.432Z,59.66
2024-04-12T22:03:56.455Z,59.60
2024-04-12T22:06:24.485Z,59.70
2024-04-12T22:08:55.252Z,59.57
2024-04-12T22:11:24.914Z,59.37
2024-04-12T22:13:53.036Z,59.68
2024-04-12T22:16:20.962Z,59.46
2024-04-12T22:18:48.977Z,60.01
2024-04-12T22:21:17.972Z,59.66
2024-04-12T22:23:49.189Z,59.15
2024-04-12T22:26:19.224Z,58.75
2024-04-12T22:28:48.219Z,59.09
2024-04-12T22:31:19.483Z,59.33
2024-04-12T22:33:50.504Z,59.29
2024-04-12T22:36:22.275Z,58.86
2024-04-12T22:38:51.219Z,58.85
2024-04-12T22:41:20.283Z,58.33
2024-04-12T22:43:49.569Z,58.24
2024-04-12T22:46:17.517Z,58.10
2024-04-12T22:48:46.130Z,57.88
2024-04-12T22:51:26.304Z,58.08
2024-04-12T22:53:54.552Z,57.79
2024-04-12T22:56:25.334Z,58.03
2024-04-12T22:58:57.746Z,58.19
2024-04-12T23:01:29.308Z,58.15
2024-04-12T23:04:00.663Z,57.98
2024-04-12T23:06:28.809Z,58.04
2024-04-12T23:08:56.854Z,58.18
2024-04-12T23:11:24.936Z,58.03
2024-04-12T23:13:53.586Z,58.22
2024-04-12T23:16:21.632Z,58.00
2024-04-12T23:18:53.462Z,58.07
2024-04-12T23:21:21.889Z,57.91
2024-04-12T23:23:49.737Z,58.09
2024-04-12T23:26:17.593Z,57.86
2024-04-12T23:28:45.542Z,58.08
2024-04-12T23:31:13.654Z,58.13
2024-04-12T23:33:41.715Z,57.83
2024-04-12T23:36:09.687Z,57.82
2024-04-12T23:38:37.596Z,57.92
2024-04-12T23:41:05.411Z,57.78
2024-04-12T23:43:33.340Z,58.20
2024-04-12T23:46:01.162Z,58.46
2024-04-12T23:48:29.595Z,58.62
2024-04-12T23:50:57.806Z,59.36
2024-04-12T23:53:26.351Z,59.50
2024-04-12T23:55:54.259Z,59.81
2024-04-12T23:58:22.222Z,60.01
